createdAt,value
2018-07-16T02:00:22.084Z,16.55
2018-07-16T02:00:26.185Z,16.63
2018-07-16T02:00:30.500Z,16.59
2018-07-16T02:00:34.601Z,16.6
2018-07-16T02:00:38.697Z,16.6
2018-07-16T02:00:42.689Z,16.6
2018-07-16T02:00:46.890Z,16.54
2018-07-16T02:00:51.095Z,16.52
2018-07-16T02:00:55.298Z,16.6
2018-07-16T02:00:59.606Z,16.55
2018-07-16T02:01:03.713Z,16.52
2018-07-16T02:01:08.040Z,16.54
2018-07-16T02:01:12.248Z,16.51
2018-07-16T02:01:16.562Z,16.57
2018-07-16T02:01:20.882Z,16.55
2018-07-16T02:01:25.084Z,16.54
2018-07-16T02:01:29.283Z,16.5
2018-07-16T02:01:33.589Z,16.63
2018-07-16T02:01:37.798Z,16.52
2018-07-16T02:01:42.110Z,16.54
2018-07-16T02:01:46.225Z,16.5
2018-07-16T02:01:50.328Z,16.62
2018-07-16T02:01:54.636Z,16.59
2018-07-16T02:01:58.732Z,16.52
2018-07-16T02:02:03.041Z,16.51
2018-07-16T02:02:07.255Z,16.54
2018-07-16T02:02:11.574Z,16.59
2018-07-16T02:02:15.785Z,16.54
2018-07-16T02:02:20.098Z,16.54
2018-07-16T02:02:24.303Z,16.5
2018-07-16T02:02:28.504Z,16.48
2018-07-16T02:02:32.708Z,16.47
2018-07-16T02:02:36.814Z,16.55
2018-07-16T02:02:41.016Z,16.48
2018-07-16T02:02:45.213Z,16.55
2018-07-16T02:02:49.528Z,16.51
2018-07-16T02:02:53.631Z,16.52
2018-07-16T02:02:57.836Z,16.47
2018-07-16T02:03:02.097Z,16.57
2018-07-16T02:03:06.197Z,16.5
2018-07-16T02:03:10.510Z,16.45
2018-07-16T02:03:14.819Z,16.5
2018-07-16T02:03:19.125Z,16.51
2018-07-16T02:03:23.332Z,16.5
2018-07-16T02:03:27.645Z,16.51
2018-07-16T02:03:31.995Z,16.52
2018-07-16T02:03:36.204Z,16.59
2018-07-16T02:03:40.509Z,16.5
2018-07-16T02:03:44.869Z,16.59
2018-07-16T02:03:49.173Z,16.59
2018-07-16T02:03:53.374Z,16.45
2018-07-16T02:03:57.691Z,16.48
2018-07-16T02:04:01.893Z,16.55
2018-07-16T02:04:06.097Z,16.57
2018-07-16T02:04:10.307Z,16.45
2018-07-16T02:04:14.510Z,16.5
2018-07-16T02:04:18.818Z,16.48
2018-07-16T02:04:23.129Z,16.5
2018-07-16T02:04:27.245Z,16.55
2018-07-16T02:04:31.346Z,16.51
2018-07-16T02:04:35.548Z,16.52
2018-07-16T02:04:39.751Z,16.54
2018-07-16T02:04:43.844Z,16.5
2018-07-16T02:04:48.045Z,16.51
2018-07-16T02:04:52.354Z,16.55
2018-07-16T02:04:56.665Z,16.45
2018-07-16T02:05:00.979Z,16.54
2018-07-16T02:05:05.179Z,16.52
2018-07-16T02:05:09.379Z,16.47
2018-07-16T02:05:13.584Z,16.48
2018-07-16T02:05:17.913Z,16.45
2018-07-16T02:05:22.112Z,16.52
2018-07-16T02:05:26.317Z,16.45
2018-07-16T02:05:30.515Z,16.41
2018-07-16T02:05:34.722Z,16.48
2018-07-16T02:05:38.822Z,16.51
2018-07-16T02:05:43.043Z,16.41
2018-07-16T02:05:47.144Z,16.45
2018-07-16T02:05:51.350Z,16.48
2018-07-16T02:05:55.556Z,16.51
2018-07-16T02:05:59.868Z,16.48
2018-07-16T02:06:04.178Z,16.5
2018-07-16T02:06:08.501Z,16.47
2018-07-16T02:06:12.816Z,16.51
2018-07-16T02:06:17.131Z,16.47
2018-07-16T02:06:21.442Z,16.47
2018-07-16T02:06:25.750Z,16.45
2018-07-16T02:06:30.062Z,16.48
2018-07-16T02:06:34.369Z,16.51
2018-07-16T02:06:38.678Z,16.44
2018-07-16T02:06:43.000Z,16.47
2018-07-16T02:06:47.317Z,16.45
2018-07-16T02:06:51.519Z,16.5
2018-07-16T02:06:55.831Z,16.4
2018-07-16T02:06:59.819Z,16.48
2018-07-16T02:07:04.021Z,16.45
2018-07-16T02:07:08.117Z,16.41
2018-07-16T02:07:12.439Z,16.5
2018-07-16T02:07:16.646Z,16.5
2018-07-16T02:07:20.852Z,16.54
2018-07-16T02:07:25.054Z,16.48
2018-07-16T02:07:29.151Z,16.51
2018-07-16T02:07:33.409Z,16.47
2018-07-16T02:07:37.403Z,16.47
2018-07-16T02:07:41.604Z,16.5
2018-07-16T02:07:45.916Z,16.48
2018-07-16T02:07:50.121Z,16.44
2018-07-16T02:07:54.220Z,16.44
2018-07-16T02:07:58.421Z,16.42
2018-07-16T02:08:02.646Z,16.52
2018-07-16T02:08:06.845Z,16.48
2018-07-16T02:08:11.164Z,16.48
2018-07-16T02:08:15.265Z,16.44
2018-07-16T02:08:19.367Z,16.42
2018-07-16T02:08:23.572Z,16.4
2018-07-16T02:08:27.786Z,16.4
2018-07-16T02:08:32.000Z,16.44
2018-07-16T02:08:36.109Z,16.5
2018-07-16T02:08:40.306Z,16.44
2018-07-16T02:08:44.402Z,16.44
2018-07-16T02:08:48.601Z,16.45
2018-07-16T02:08:52.919Z,16.48
2018-07-16T02:08:57.233Z,16.45
2018-07-16T02:09:01.546Z,16.47
2018-07-16T02:09:05.534Z,16.47
2018-07-16T02:09:09.733Z,16.48
2018-07-16T02:09:13.833Z,16.51
2018-07-16T02:09:18.142Z,16.34
2018-07-16T02:09:22.341Z,16.47
2018-07-16T02:09:26.115Z,16.55
2018-07-16T02:09:30.209Z,16.45
2018-07-16T02:09:34.415Z,16.45
2018-07-16T02:09:38.515Z,16.51
2018-07-16T02:09:42.612Z,16.37
2018-07-16T02:09:46.717Z,16.48
2018-07-16T02:09:51.027Z,16.5
2018-07-16T02:09:55.232Z,16.44
2018-07-16T02:09:59.550Z,16.48
2018-07-16T02:10:03.543Z,16.5
2018-07-16T02:10:07.543Z,16.37
2018-07-16T02:10:11.853Z,16.47
2018-07-16T02:10:16.159Z,16.34
2018-07-16T02:10:20.360Z,16.47
2018-07-16T02:10:24.470Z,16.42
2018-07-16T02:10:28.786Z,16.44
2018-07-16T02:10:32.991Z,16.44
2018-07-16T02:10:37.196Z,16.48
2018-07-16T02:10:41.408Z,16.4
2018-07-16T02:10:45.510Z,16.48
2018-07-16T02:10:49.826Z,16.48
2018-07-16T02:10:54.025Z,16.51
2018-07-16T02:10:58.392Z,16.48
2018-07-16T02:11:02.380Z,16.41
2018-07-16T02:11:06.687Z,16.47
2018-07-16T02:11:10.792Z,16.37
2018-07-16T02:11:15.099Z,16.34
2018-07-16T02:11:19.199Z,16.36
2018-07-16T02:11:23.506Z,16.36
2018-07-16T02:11:27.497Z,16.47
2018-07-16T02:11:31.814Z,16.37
2018-07-16T02:11:36.121Z,16.5
2018-07-16T02:11:40.434Z,16.37
2018-07-16T02:11:44.637Z,16.41
2018-07-16T02:11:48.842Z,16.37
2018-07-16T02:11:53.163Z,16.44
2018-07-16T02:11:57.267Z,16.37
2018-07-16T02:12:01.479Z,16.37
2018-07-16T02:12:05.692Z,16.37
2018-07-16T02:12:09.890Z,16.45
2018-07-16T02:12:14.090Z,16.37
2018-07-16T02:12:18.293Z,16.36
2018-07-16T02:12:22.495Z,16.36
2018-07-16T02:12:26.806Z,16.44
2018-07-16T02:12:31.117Z,16.34
2018-07-16T02:12:35.444Z,16.37
2018-07-16T02:12:39.435Z,16.4
2018-07-16T02:12:43.637Z,16.33
2018-07-16T02:12:47.840Z,16.42
2018-07-16T02:12:52.047Z,16.36
2018-07-16T02:12:56.356Z,16.41
2018-07-16T02:13:00.665Z,16.34
2018-07-16T02:13:04.940Z,16.34
2018-07-16T02:13:09.039Z,16.42
2018-07-16T02:13:13.352Z,16.4
2018-07-16T02:13:17.447Z,16.32
2018-07-16T02:13:21.761Z,16.42
2018-07-16T02:13:25.850Z,16.41
2018-07-16T02:13:30.161Z,16.48
2018-07-16T02:13:34.481Z,16.37
2018-07-16T02:13:38.678Z,16.36
2018-07-16T02:13:42.565Z,16.42
2018-07-16T02:13:46.660Z,16.36
2018-07-16T02:13:50.865Z,16.3
2018-07-16T02:13:55.069Z,16.4
2018-07-16T02:13:59.425Z,16.33
2018-07-16T02:14:03.784Z,16.3
2018-07-16T02:14:07.984Z,16.32
2018-07-16T02:14:12.192Z,16.33
2018-07-16T02:14:16.500Z,16.36
2018-07-16T02:14:20.805Z,16.36
2018-07-16T02:14:24.903Z,16.36
2018-07-16T02:14:28.783Z,16.36
2018-07-16T02:14:33.035Z,16.48
2018-07-16T02:14:37.239Z,16.32
2018-07-16T02:14:41.440Z,16.44
2018-07-16T02:14:45.559Z,16.36
2018-07-16T02:14:49.763Z,16.44
2018-07-16T02:14:53.969Z,16.34
2018-07-16T02:14:58.170Z,16.32
2018-07-16T02:15:02.496Z,16.37
2018-07-16T02:15:06.819Z,16.36
2018-07-16T02:15:10.804Z,16.3
2018-07-16T02:15:15.009Z,16.42
2018-07-16T02:15:18.999Z,16.26
2018-07-16T02:15:22.992Z,16.3
2018-07-16T02:15:27.199Z,16.34
2018-07-16T02:15:31.508Z,16.47
2018-07-16T02:15:35.713Z,16.44
2018-07-16T02:15:39.909Z,16.44
2018-07-16T02:15:43.904Z,16.4
2018-07-16T02:15:48.119Z,16.32
2018-07-16T02:15:52.325Z,16.34
2018-07-16T02:15:56.533Z,16.34
2018-07-16T02:16:00.838Z,16.41
2018-07-16T02:16:04.732Z,16.34
2018-07-16T02:16:09.048Z,16.34
2018-07-16T02:16:13.375Z,16.34
2018-07-16T02:16:17.580Z,16.29
2018-07-16T02:16:21.674Z,16.33
2018-07-16T02:16:25.662Z,16.37
2018-07-16T02:16:29.862Z,16.29
2018-07-16T02:16:34.170Z,16.34
2018-07-16T02:16:38.274Z,16.34
2018-07-16T02:16:42.522Z,16.34
2018-07-16T02:16:46.618Z,16.34
2018-07-16T02:16:50.930Z,16.36
2018-07-16T02:16:55.134Z,16.4
2018-07-16T02:16:59.445Z,16.33
2018-07-16T02:17:03.440Z,16.29
2018-07-16T02:17:07.648Z,16.4
2018-07-16T02:17:11.638Z,16.32
2018-07-16T02:17:15.848Z,16.36
2018-07-16T02:17:20.060Z,16.32
2018-07-16T02:17:24.065Z,16.36
2018-07-16T02:17:28.179Z,16.27
2018-07-16T02:17:32.485Z,16.37
2018-07-16T02:17:36.581Z,16.36
2018-07-16T02:17:40.892Z,16.36
2018-07-16T02:17:45.093Z,16.37
2018-07-16T02:17:49.299Z,16.36
2018-07-16T02:17:53.505Z,16.37
2018-07-16T02:17:57.811Z,16.3
2018-07-16T02:18:01.912Z,16.37
2018-07-16T02:18:06.016Z,16.32
2018-07-16T02:18:10.334Z,16.27
2018-07-16T02:18:14.538Z,16.4
2018-07-16T02:18:18.753Z,16.3
2018-07-16T02:18:23.069Z,16.41
2018-07-16T02:18:27.166Z,16.34
2018-07-16T02:18:31.381Z,16.37
2018-07-16T02:18:35.689Z,16.37
2018-07-16T02:18:39.789Z,16.36
2018-07-16T02:18:43.785Z,16.3
2018-07-16T02:18:47.987Z,16.33
2018-07-16T02:18:51.979Z,16.33
2018-07-16T02:18:56.194Z,16.36
2018-07-16T02:19:00.509Z,16.32
2018-07-16T02:19:04.605Z,16.25
2018-07-16T02:19:08.911Z,16.37
2018-07-16T02:19:13.118Z,16.32
2018-07-16T02:19:17.328Z,16.3
2018-07-16T02:19:21.435Z,16.33
2018-07-16T02:19:25.534Z,16.32
2018-07-16T02:19:29.525Z,16.32
2018-07-16T02:19:33.835Z,16.3
2018-07-16T02:19:38.155Z,16.36
2018-07-16T02:19:42.468Z,16.33
2018-07-16T02:19:46.673Z,16.34
2018-07-16T02:19:50.874Z,16.3
2018-07-16T02:19:55.182Z,16.3
2018-07-16T02:19:59.384Z,16.3
2018-07-16T02:20:03.586Z,16.3
2018-07-16T02:20:07.901Z,16.3
2018-07-16T02:20:12.106Z,16.32
2018-07-16T02:20:16.315Z,16.32
2018-07-16T02:20:20.518Z,16.29
2018-07-16T02:20:24.609Z,16.29
2018-07-16T02:20:28.707Z,16.29
2018-07-16T02:20:32.913Z,16.29
2018-07-16T02:20:37.118Z,16.3
2018-07-16T02:20:41.212Z,16.17
2018-07-16T02:20:45.526Z,16.29
2018-07-16T02:20:49.623Z,16.32
2018-07-16T02:20:53.944Z,16.23
2018-07-16T02:20:58.147Z,16.22
2018-07-16T02:21:02.249Z,16.25
2018-07-16T02:21:06.555Z,16.34
2018-07-16T02:21:10.758Z,16.27
2018-07-16T02:21:15.070Z,16.26
2018-07-16T02:21:19.383Z,16.23
2018-07-16T02:21:23.685Z,16.23
2018-07-16T02:21:27.890Z,16.25
2018-07-16T02:21:32.092Z,16.14
2018-07-16T02:21:36.298Z,16.23
2018-07-16T02:21:40.500Z,16.17
2018-07-16T02:21:44.710Z,16.22
2018-07-16T02:21:49.015Z,16.27
2018-07-16T02:21:53.216Z,16.22
2018-07-16T02:21:57.417Z,16.18
2018-07-16T02:22:01.725Z,16.18
2018-07-16T02:22:05.717Z,16.13
2018-07-16T02:22:09.932Z,16.17
2018-07-16T02:22:14.239Z,16.22
2018-07-16T02:22:18.454Z,16.18
2018-07-16T02:22:22.763Z,16.16
2018-07-16T02:22:26.967Z,16.22
2018-07-16T02:22:31.176Z,16.27
2018-07-16T02:22:35.384Z,16.17
2018-07-16T02:22:39.693Z,16.22
2018-07-16T02:22:43.895Z,16.17
2018-07-16T02:22:48.106Z,16.13
2018-07-16T02:22:52.311Z,16.13
2018-07-16T02:22:56.432Z,16.17
2018-07-16T02:23:00.749Z,16.16
2018-07-16T02:23:04.963Z,16.18
2018-07-16T02:23:08.955Z,16.22
2018-07-16T02:23:13.224Z,16.13
2018-07-16T02:23:17.530Z,16.27
2018-07-16T02:23:21.637Z,16.25
2018-07-16T02:23:25.735Z,16.18
2018-07-16T02:23:30.045Z,16.22
2018-07-16T02:23:34.144Z,16.14
2018-07-16T02:23:38.364Z,16.25
2018-07-16T02:23:42.562Z,16.25
2018-07-16T02:23:46.870Z,16.14
2018-07-16T02:23:51.186Z,16.26
2018-07-16T02:23:55.396Z,16.16
2018-07-16T02:23:59.498Z,16.17
2018-07-16T02:24:03.707Z,16.18
2018-07-16T02:24:07.912Z,16.25
2018-07-16T02:24:12.109Z,16.16
2018-07-16T02:24:16.306Z,16.14
2018-07-16T02:24:20.507Z,16.17
2018-07-16T02:24:24.822Z,16.18
2018-07-16T02:24:28.925Z,16.17
2018-07-16T02:24:33.236Z,16.17
2018-07-16T02:24:37.224Z,16.11
2018-07-16T02:24:41.532Z,16.17
2018-07-16T02:24:45.842Z,16.11
2018-07-16T02:24:49.935Z,16.11
2018-07-16T02:24:54.138Z,16.14
2018-07-16T02:24:58.341Z,16.11
2018-07-16T02:25:02.591Z,16.22
2018-07-16T02:25:06.795Z,16.13
2018-07-16T02:25:10.997Z,16.16
2018-07-16T02:25:15.368Z,16.17
2018-07-16T02:25:19.571Z,16.11
2018-07-16T02:25:23.882Z,16.17
2018-07-16T02:25:28.085Z,16.16
2018-07-16T02:25:32.299Z,16.13
2018-07-16T02:25:36.287Z,16.11
2018-07-16T02:25:40.500Z,16.03
2018-07-16T02:25:44.604Z,16.07
2018-07-16T02:25:48.935Z,16.13
2018-07-16T02:25:53.033Z,16.18
2018-07-16T02:25:57.235Z,16.06
2018-07-16T02:26:01.342Z,16.08
2018-07-16T02:26:05.441Z,15.99
2018-07-16T02:26:09.644Z,16.04
2018-07-16T02:26:13.845Z,16.01
2018-07-16T02:26:18.053Z,16.06
2018-07-16T02:26:22.361Z,16.07
2018-07-16T02:26:26.681Z,16.13
2018-07-16T02:26:30.989Z,16.06
2018-07-16T02:26:34.978Z,16.1
2018-07-16T02:26:39.291Z,16.03
2018-07-16T02:26:43.494Z,16.03
2018-07-16T02:26:47.814Z,16.06
2018-07-16T02:26:51.917Z,15.99
2018-07-16T02:26:56.126Z,16.04
2018-07-16T02:27:00.333Z,16.07
2018-07-16T02:27:04.546Z,16.04
2018-07-16T02:27:08.754Z,16.04
2018-07-16T02:27:13.114Z,16.04
2018-07-16T02:27:17.333Z,16.03
2018-07-16T02:27:21.422Z,16.06
2018-07-16T02:27:25.640Z,16.01
2018-07-16T02:27:29.948Z,16.06
2018-07-16T02:27:33.832Z,16.03
2018-07-16T02:27:38.202Z,16.06
2018-07-16T02:27:42.516Z,16.03
2018-07-16T02:27:46.722Z,16.01
2018-07-16T02:27:50.925Z,16.07
2018-07-16T02:27:55.128Z,16.1
2018-07-16T02:27:59.337Z,16.03
2018-07-16T02:28:03.341Z,16.06
2018-07-16T02:28:07.440Z,16.08
2018-07-16T02:28:11.538Z,16.07
2018-07-16T02:28:15.744Z,16.01
2018-07-16T02:28:20.114Z,16.13
2018-07-16T02:28:24.328Z,16.01
2018-07-16T02:28:28.528Z,16.04
2018-07-16T02:28:32.832Z,16.03
2018-07-16T02:28:36.929Z,15.99
2018-07-16T02:28:41.130Z,16.03
2018-07-16T02:28:45.437Z,16.1
2018-07-16T02:28:49.641Z,16.08
2018-07-16T02:28:53.953Z,15.95
2018-07-16T02:28:58.049Z,15.99
2018-07-16T02:29:02.258Z,16.07
2018-07-16T02:29:06.470Z,16.06
2018-07-16T02:29:10.673Z,16.08
2018-07-16T02:29:14.876Z,15.99
2018-07-16T02:29:19.180Z,15.89
2018-07-16T02:29:23.386Z,15.92
2018-07-16T02:29:27.602Z,16.13
2018-07-16T02:29:31.922Z,16.03
2018-07-16T02:29:36.235Z,15.98
2018-07-16T02:29:40.443Z,15.91
2018-07-16T02:29:44.651Z,16.07
2018-07-16T02:29:48.962Z,15.99
2018-07-16T02:29:53.271Z,16.01
2018-07-16T02:29:57.583Z,15.99
2018-07-16T02:30:01.796Z,16.01
2018-07-16T02:30:05.796Z,16.04
2018-07-16T02:30:09.905Z,15.95
2018-07-16T02:30:14.264Z,15.99
2018-07-16T02:30:18.602Z,15.98
2018-07-16T02:30:22.935Z,15.98
2018-07-16T02:30:27.059Z,15.95
2018-07-16T02:30:31.392Z,15.96
2018-07-16T02:30:35.701Z,15.99
2018-07-16T02:30:39.696Z,15.95
2018-07-16T02:30:43.913Z,15.95
2018-07-16T02:30:48.124Z,15.95
2018-07-16T02:30:52.439Z,15.98
2018-07-16T02:30:56.751Z,15.93
2018-07-16T02:31:00.968Z,16.01
2018-07-16T02:31:04.965Z,15.95
2018-07-16T02:31:09.189Z,15.93
2018-07-16T02:31:13.187Z,15.96
2018-07-16T02:31:17.403Z,15.96
2018-07-16T02:31:21.618Z,15.95
2018-07-16T02:31:25.933Z,15.95
2018-07-16T02:31:30.147Z,15.89
2018-07-16T02:31:34.263Z,15.92
2018-07-16T02:31:38.588Z,15.96
2018-07-16T02:31:42.691Z,15.92
2018-07-16T02:31:47.013Z,15.91
2018-07-16T02:31:51.335Z,15.89
2018-07-16T02:31:55.537Z,15.93
2018-07-16T02:31:59.758Z,15.89
2018-07-16T02:32:03.989Z,15.93
2018-07-16T02:32:08.200Z,15.93
2018-07-16T02:32:12.409Z,15.96
2018-07-16T02:32:16.732Z,15.95
2018-07-16T02:32:20.851Z,16.01
2018-07-16T02:32:25.071Z,15.92
2018-07-16T02:32:29.284Z,15.89
2018-07-16T02:32:33.603Z,15.86
2018-07-16T02:32:37.917Z,15.89
2018-07-16T02:32:42.290Z,15.98
2018-07-16T02:32:46.605Z,15.96
2018-07-16T02:32:50.818Z,15.81
2018-07-16T02:32:54.927Z,15.88
2018-07-16T02:32:59.141Z,15.89
2018-07-16T02:33:03.136Z,15.92
2018-07-16T02:33:07.132Z,15.89
2018-07-16T02:33:11.445Z,15.92
2018-07-16T02:33:15.472Z,15.91
2018-07-16T02:33:19.794Z,15.92
2018-07-16T02:33:23.912Z,15.88
2018-07-16T02:33:28.143Z,15.93
2018-07-16T02:33:32.250Z,15.88
2018-07-16T02:33:36.351Z,15.89
2018-07-16T02:33:40.570Z,15.88
2018-07-16T02:33:44.775Z,15.89
2018-07-16T02:33:48.979Z,15.85
2018-07-16T02:33:53.072Z,15.92
2018-07-16T02:33:57.396Z,15.84
2018-07-16T02:34:01.613Z,15.89
2018-07-16T02:34:05.834Z,15.8
2018-07-16T02:34:10.150Z,15.85
2018-07-16T02:34:14.256Z,15.78
2018-07-16T02:34:18.472Z,15.88
2018-07-16T02:34:22.681Z,15.78
2018-07-16T02:34:27.008Z,15.92
2018-07-16T02:34:31.013Z,15.8
2018-07-16T02:34:35.234Z,15.8
2018-07-16T02:34:39.361Z,15.86
2018-07-16T02:34:43.576Z,15.78
2018-07-16T02:34:47.885Z,15.81
2018-07-16T02:34:51.985Z,15.84
2018-07-16T02:34:56.089Z,15.84
2018-07-16T02:35:00.188Z,15.77
2018-07-16T02:35:04.318Z,15.84
2018-07-16T02:35:08.314Z,15.77
2018-07-16T02:35:12.623Z,15.8
2018-07-16T02:35:16.945Z,15.8
2018-07-16T02:35:21.260Z,15.77
2018-07-16T02:35:25.589Z,15.77
2018-07-16T02:35:29.796Z,15.78
2018-07-16T02:35:34.004Z,15.81
2018-07-16T02:35:38.322Z,15.81
2018-07-16T02:35:42.453Z,15.85
2018-07-16T02:35:46.675Z,15.8
2018-07-16T02:35:50.916Z,15.84
2018-07-16T02:35:55.137Z,15.8
2018-07-16T02:35:59.252Z,15.77
2018-07-16T02:36:03.362Z,15.77
2018-07-16T02:36:07.563Z,15.8
2018-07-16T02:36:11.773Z,15.78
2018-07-16T02:36:15.993Z,15.76
2018-07-16T02:36:20.096Z,15.78
2018-07-16T02:36:24.419Z,15.81
2018-07-16T02:36:28.629Z,15.78
2018-07-16T02:36:32.944Z,15.8
2018-07-16T02:36:37.262Z,15.78
2018-07-16T02:36:41.469Z,15.68
2018-07-16T02:36:45.782Z,15.73
2018-07-16T02:36:50.100Z,15.67
2018-07-16T02:36:54.311Z,15.71
2018-07-16T02:36:58.520Z,15.74
2018-07-16T02:37:02.738Z,15.71
2018-07-16T02:37:06.735Z,15.68
2018-07-16T02:37:11.054Z,15.74
2018-07-16T02:37:15.264Z,15.74
2018-07-16T02:37:19.585Z,15.73
2018-07-16T02:37:23.802Z,15.73
2018-07-16T02:37:28.017Z,15.78
2018-07-16T02:37:32.333Z,15.73
2018-07-16T02:37:36.436Z,15.78
2018-07-16T02:37:40.651Z,15.73
2018-07-16T02:37:44.760Z,15.77
2018-07-16T02:37:48.975Z,15.73
2018-07-16T02:37:53.174Z,15.73
2018-07-16T02:37:57.489Z,15.7
2018-07-16T02:38:01.769Z,15.78
2018-07-16T02:38:05.987Z,15.76
2018-07-16T02:38:10.207Z,15.73
2018-07-16T02:38:14.420Z,15.7
2018-07-16T02:38:18.744Z,15.74
2018-07-16T02:38:23.111Z,15.7
2018-07-16T02:38:27.314Z,15.76
2018-07-16T02:38:31.634Z,15.71
2018-07-16T02:38:36.032Z,15.7
2018-07-16T02:38:40.472Z,15.67
2018-07-16T02:38:44.779Z,15.68
2018-07-16T02:38:49.114Z,15.67
2018-07-16T02:38:53.351Z,15.73
2018-07-16T02:38:57.672Z,15.74
2018-07-16T02:39:01.905Z,15.74
2018-07-16T02:39:05.904Z,15.7
2018-07-16T02:39:09.998Z,15.62
2018-07-16T02:39:14.227Z,15.73
2018-07-16T02:39:18.441Z,15.62
2018-07-16T02:39:22.673Z,15.71
2018-07-16T02:39:26.718Z,15.62
2018-07-16T02:39:30.928Z,15.67
2018-07-16T02:39:35.308Z,15.76
2018-07-16T02:39:39.511Z,15.73
2018-07-16T02:39:43.610Z,15.67
2018-07-16T02:39:47.713Z,15.7
2018-07-16T02:39:51.938Z,15.67
2018-07-16T02:39:56.260Z,15.64
2018-07-16T02:40:00.261Z,15.67
2018-07-16T02:40:04.256Z,15.67
2018-07-16T02:40:08.361Z,15.68
2018-07-16T02:40:12.573Z,15.67
2018-07-16T02:40:16.673Z,15.6
2018-07-16T02:40:20.879Z,15.66
2018-07-16T02:40:25.098Z,15.62
2018-07-16T02:40:29.321Z,15.68
2018-07-16T02:40:33.633Z,15.66
2018-07-16T02:40:37.742Z,15.66
2018-07-16T02:40:42.115Z,15.59
2018-07-16T02:40:46.317Z,15.64
2018-07-16T02:40:50.640Z,15.58
2018-07-16T02:40:54.740Z,15.59
2018-07-16T02:40:59.060Z,15.59
2018-07-16T02:41:03.438Z,15.62
2018-07-16T02:41:07.436Z,15.62
2018-07-16T02:41:11.541Z,15.62
2018-07-16T02:41:15.771Z,15.6
2018-07-16T02:41:20.086Z,15.62
2018-07-16T02:41:24.083Z,15.62
2018-07-16T02:41:28.413Z,15.6
2018-07-16T02:41:32.616Z,15.62
2018-07-16T02:41:36.929Z,15.6
2018-07-16T02:41:41.206Z,15.62
2018-07-16T02:41:45.313Z,15.53
2018-07-16T02:41:49.637Z,15.59
2018-07-16T02:41:53.859Z,15.6
2018-07-16T02:41:58.075Z,15.59
2018-07-16T02:42:02.388Z,15.6
2018-07-16T02:42:06.491Z,15.64
2018-07-16T02:42:10.707Z,15.56
2018-07-16T02:42:14.936Z,15.49
2018-07-16T02:42:19.278Z,15.59
2018-07-16T02:42:23.599Z,15.56
2018-07-16T02:42:27.816Z,15.56
2018-07-16T02:42:32.147Z,15.6
2018-07-16T02:42:36.462Z,15.55
2018-07-16T02:42:40.557Z,15.55
2018-07-16T02:42:44.661Z,15.58
2018-07-16T02:42:48.977Z,15.52
2018-07-16T02:42:53.079Z,15.52
2018-07-16T02:42:57.288Z,15.55
2018-07-16T02:43:01.395Z,15.55
2018-07-16T02:43:05.610Z,15.58
2018-07-16T02:43:09.929Z,15.53
2018-07-16T02:43:14.152Z,15.56
2018-07-16T02:43:18.356Z,15.53
2018-07-16T02:43:22.702Z,15.55
2018-07-16T02:43:26.817Z,15.55
2018-07-16T02:43:31.136Z,15.56
2018-07-16T02:43:35.363Z,15.49
2018-07-16T02:43:39.475Z,15.52
2018-07-16T02:43:43.574Z,15.53
2018-07-16T02:43:47.901Z,15.58
2018-07-16T02:43:52.009Z,15.51
2018-07-16T02:43:56.119Z,15.55
2018-07-16T02:44:00.327Z,15.52
2018-07-16T02:44:04.440Z,15.52
2018-07-16T02:44:08.245Z,15.51
2018-07-16T02:44:12.467Z,15.52
2018-07-16T02:44:16.784Z,15.52
2018-07-16T02:44:20.897Z,15.51
2018-07-16T02:44:25.138Z,15.53
2018-07-16T02:44:29.243Z,15.59
2018-07-16T02:44:33.339Z,15.52
2018-07-16T02:44:37.549Z,15.51
2018-07-16T02:44:41.771Z,15.53
2018-07-16T02:44:46.082Z,15.52
2018-07-16T02:44:50.081Z,15.53
2018-07-16T02:44:54.393Z,15.49
2018-07-16T02:44:58.616Z,15.51
2018-07-16T02:45:02.786Z,15.51
2018-07-16T02:45:06.903Z,15.55
2018-07-16T02:45:11.009Z,15.49
2018-07-16T02:45:15.223Z,15.53
2018-07-16T02:45:19.427Z,15.49
2018-07-16T02:45:23.746Z,15.51
2018-07-16T02:45:27.950Z,15.51
2018-07-16T02:45:32.162Z,15.55
2018-07-16T02:45:36.270Z,15.49
2018-07-16T02:45:40.484Z,15.55
2018-07-16T02:45:44.778Z,15.52
2018-07-16T02:45:49.099Z,15.53
2018-07-16T02:45:53.316Z,15.49
2018-07-16T02:45:57.537Z,15.51
2018-07-16T02:46:01.756Z,15.48
2018-07-16T02:46:05.763Z,15.51
2018-07-16T02:46:09.979Z,15.48
2018-07-16T02:46:13.871Z,15.48
2018-07-16T02:46:18.193Z,15.49
2018-07-16T02:46:22.414Z,15.46
2018-07-16T02:46:26.509Z,15.49
2018-07-16T02:46:30.870Z,15.51
2018-07-16T02:46:35.191Z,15.46
2018-07-16T02:46:39.525Z,15.48
2018-07-16T02:46:43.735Z,15.49
2018-07-16T02:46:48.072Z,15.48
2018-07-16T02:46:52.174Z,15.49
2018-07-16T02:46:56.401Z,15.53
2018-07-16T02:47:00.613Z,15.51
2018-07-16T02:47:04.552Z,15.51
2018-07-16T02:47:08.767Z,15.55
2018-07-16T02:47:13.048Z,15.49
2018-07-16T02:47:17.255Z,15.51
2018-07-16T02:47:21.466Z,15.48
2018-07-16T02:47:25.672Z,15.46
2018-07-16T02:47:29.994Z,15.48
2018-07-16T02:47:34.199Z,15.49
2018-07-16T02:47:38.515Z,15.46
2018-07-16T02:47:42.715Z,15.51
2018-07-16T02:47:46.816Z,15.52
2018-07-16T02:47:51.022Z,15.51
2018-07-16T02:47:55.228Z,15.51
2018-07-16T02:47:59.350Z,15.49
2018-07-16T02:48:03.235Z,15.46
2018-07-16T02:48:07.442Z,15.48
2018-07-16T02:48:11.434Z,15.49
2018-07-16T02:48:15.429Z,15.53
2018-07-16T02:48:19.641Z,15.49
2018-07-16T02:48:23.850Z,15.44
2018-07-16T02:48:27.952Z,15.51
2018-07-16T02:48:32.164Z,15.49
2018-07-16T02:48:36.486Z,15.46
2018-07-16T02:48:40.810Z,15.48
2018-07-16T02:48:45.130Z,15.49
2018-07-16T02:48:49.348Z,15.44
2018-07-16T02:48:53.746Z,15.46
2018-07-16T02:48:57.951Z,15.48
2018-07-16T02:49:02.266Z,15.53
2018-07-16T02:49:06.399Z,15.51
2018-07-16T02:49:10.614Z,15.49
2018-07-16T02:49:14.814Z,15.49
2018-07-16T02:49:18.817Z,15.44
2018-07-16T02:49:23.022Z,15.55
2018-07-16T02:49:27.234Z,15.46
2018-07-16T02:49:31.352Z,15.51
2018-07-16T02:49:35.450Z,15.51
2018-07-16T02:49:39.798Z,15.55
2018-07-16T02:49:43.913Z,15.43
2018-07-16T02:49:48.228Z,15.46
2018-07-16T02:49:52.439Z,15.51
2018-07-16T02:49:56.722Z,15.46
2018-07-16T02:50:00.929Z,15.43
2018-07-16T02:50:05.148Z,15.49
2018-07-16T02:50:09.140Z,15.44
2018-07-16T02:50:13.240Z,15.43
2018-07-16T02:50:17.554Z,15.49
2018-07-16T02:50:21.868Z,15.43
2018-07-16T02:50:26.085Z,15.51
2018-07-16T02:50:30.401Z,15.43
2018-07-16T02:50:34.500Z,15.46
2018-07-16T02:50:38.492Z,15.46
2018-07-16T02:50:42.805Z,15.48
2018-07-16T02:50:47.132Z,15.48
2018-07-16T02:50:51.451Z,15.46
2018-07-16T02:50:55.660Z,15.43
2018-07-16T02:50:59.881Z,15.4
2018-07-16T02:51:03.987Z,15.51
2018-07-16T02:51:08.194Z,15.38
2018-07-16T02:51:12.411Z,15.52
2018-07-16T02:51:16.623Z,15.43
2018-07-16T02:51:20.837Z,15.44
2018-07-16T02:51:24.941Z,15.43
2018-07-16T02:51:29.269Z,15.4
2018-07-16T02:51:33.586Z,15.48
2018-07-16T02:51:37.694Z,15.44
2018-07-16T02:51:42.009Z,15.46
2018-07-16T02:51:46.222Z,15.43
2018-07-16T02:51:50.431Z,15.4
2018-07-16T02:51:54.746Z,15.44
2018-07-16T02:51:59.058Z,15.4
2018-07-16T02:52:03.262Z,15.44
2018-07-16T02:52:07.575Z,15.43
2018-07-16T02:52:11.789Z,15.43
2018-07-16T02:52:16.122Z,15.43
2018-07-16T02:52:20.226Z,15.41
2018-07-16T02:52:24.537Z,15.41
2018-07-16T02:52:28.646Z,15.4
2018-07-16T02:52:32.976Z,15.4
2018-07-16T02:52:37.186Z,15.49
2018-07-16T02:52:41.497Z,15.38
2018-07-16T02:52:45.708Z,15.51
2018-07-16T02:52:49.819Z,15.48
2018-07-16T02:52:54.036Z,15.41
2018-07-16T02:52:58.246Z,15.43
2018-07-16T02:53:02.465Z,15.48
2018-07-16T02:53:06.470Z,15.52
2018-07-16T02:53:10.684Z,15.51
2018-07-16T02:53:14.999Z,15.52
2018-07-16T02:53:19.209Z,15.48
2018-07-16T02:53:23.309Z,15.46
2018-07-16T02:53:27.635Z,15.41
2018-07-16T02:53:31.945Z,15.46
2018-07-16T02:53:36.325Z,15.49
2018-07-16T02:53:40.422Z,15.37
2018-07-16T02:53:44.535Z,15.53
2018-07-16T02:53:48.864Z,15.37
2018-07-16T02:53:52.964Z,15.48
2018-07-16T02:53:57.168Z,15.48
2018-07-16T02:54:01.567Z,15.41
2018-07-16T02:54:05.896Z,15.48
2018-07-16T02:54:10.220Z,15.37
2018-07-16T02:54:14.540Z,15.48
2018-07-16T02:54:18.671Z,15.44
2018-07-16T02:54:22.908Z,15.51
2018-07-16T02:54:26.806Z,15.48
2018-07-16T02:54:31.128Z,15.38
2018-07-16T02:54:35.338Z,15.46
2018-07-16T02:54:39.682Z,15.37
2018-07-16T02:54:43.890Z,15.4